Terminal Aerodrome Forecast
Issued by NWS Louisville, KY

Home | Current Version | Previous Version | Text Only | Print | Product List | Glossary On
Versions: 1 2 3 4 5 6 7 8 9 10 11 12 13 14 15
000
FTUS43 KLMK 170526
TAFSDF
TAF
KSDF 170526Z 1706/1812 18005KT P6SM VCSH SCT040 BKN200
     FM171100 19008KT P6SM SCT040 BKN200
     FM171800 21010G18KT P6SM VCTS SCT030CB BKN150
     FM172100 23012G22KT P6SM -SHRA VCTS BKN035CB BKN150
     FM180000 23009KT P6SM SCT035 BKN150
     FM180500 24004KT P6SM FEW025 SCT090=

USA.gov is the U.S. government's official web portal to all federal, state and local government web resources and services.